Main page
METAR-TAF:

METAR-TAF

Airports :

Barbacena, Minas Gerais, Brazil

latitude: 21-15S, longitude: 043-46W, elevation: 1171 m

Current weather observation

The report was made 1 hour and 10 minutes ago, at 09:00 UTC
Wind 6 kt from the East, varying between East/Northeast and Southeast
Temperature 15°C
Humidity 94%
Pressure 1022 hPa
Visibility: 4000 m
Broken clouds at a height of 600 ft
Broken clouds at a height of 9000 ft
mist

METAR: SBBQ 240900Z 10006KT 070V130 4000 BR BKN006 BKN090 15/14 Q1022

Time: 07:10 (10:10 UTC)


TAF: missing

Weather observations and forecasts of more than 4000 airports (METAR and TAF reports).

The available stations are represented by yellow and red dots on the map.

Hover mouse over dot to see the name of the station.

Then click to see weather observations and forecasts.

To change the map : click on the green buttons with a black cross to zoom in, on the green button with a dash to zoom out, or on the green arrows for adjacent maps.


METAR-TAF: